Time;durP1;ratioP1;P1;durP2;ratioP2;P2;SDS_P1;SDS_P2;PMS_P1;PMS_P2;Temp;Humidity;BMP_temperature;BMP_pressure;BME280_temperature;BME280_humidity;BME280_pressure;Samples;Min_cycle;Max_cycle;Signal;HPM_P1;HPM_P2
2023/05/13 00:00:58;;;;;;;7.27;4.63;;;;;;;-145.69;100.00;52487.97;5074633;28;20210;-78
2023/05/13 00:03:24;;;;;;;5.43;4.33;;;;;;;-145.69;100.00;52466.16;5069823;28;20198;-77
2023/05/13 00:05:50;;;;;;;6.20;4.10;;;;;;;-145.69;100.00;52523.59;5074674;28;20249;-76
2023/05/13 00:08:19;;;;;;;8.60;4.57;;;;;;;-145.69;100.00;52523.59;5074255;28;20222;-76
2023/05/13 00:10:45;;;;;;;5.93;4.23;;;;;;;-145.69;100.00;52533.50;5074279;28;20397;-76
2023/05/13 00:13:12;;;;;;;8.70;5.00;;;;;;;-145.69;100.00;52515.69;5074338;28;20771;-76
2023/05/13 00:15:39;;;;;;;11.23;5.00;;;;;;;-145.69;100.00;52489.94;5074366;28;20210;-76
2023/05/13 00:18:05;;;;;;;8.97;5.20;;;;;;;-145.69;100.00;52535.47;5074369;28;20199;-76
2023/05/13 00:20:32;;;;;;;7.80;5.30;;;;;;;-145.69;100.00;52505.78;5074505;28;20199;-76
2023/05/13 00:22:58;;;;;;;6.10;4.50;;;;;;;-145.69;100.00;52505.78;5074235;28;20199;-76
2023/05/13 00:25:26;;;;;;;8.47;5.50;;;;;;;-145.69;100.00;52474.09;5074000;28;20692;-76
2023/05/13 00:27:52;;;;;;;10.20;5.70;;;;;;;-145.69;100.00;52499.84;5074155;28;20199;-76
2023/05/13 00:30:19;;;;;;;8.73;5.07;;;;;;;-145.69;100.00;52493.91;5074038;28;20199;-76
2023/05/13 00:32:46;;;;;;;11.70;5.83;;;;;;;-145.69;100.00;52515.69;5072109;28;20728;-75
2023/05/13 00:35:12;;;;;;;7.53;4.80;;;;;;;-145.69;100.00;52541.44;5053787;28;20196;-76
2023/05/13 00:37:39;;;;;;;7.53;5.10;;;;;;;-145.69;100.00;52487.97;5057562;28;20209;-76
2023/05/13 00:40:10;;;;;;;6.93;4.63;;;;;;;-145.69;100.00;52509.75;5053905;28;20211;-75
2023/05/13 00:42:38;;;;;;;8.57;5.30;;;;;;;-145.69;100.00;52535.47;5053711;28;20195;-76
2023/05/13 00:45:05;;;;;;;7.07;4.50;;;;;;;-145.69;100.00;52493.91;5053562;28;20238;-76
2023/05/13 00:47:32;;;;;;;10.97;5.10;;;;;;;-145.69;100.00;52527.56;5072559;28;20231;-75
2023/05/13 00:49:59;;;;;;;7.10;4.77;;;;;;;-145.69;100.00;52521.63;5073819;28;20210;-76
2023/05/13 00:52:25;;;;;;;9.43;5.30;;;;;;;-145.69;100.00;52527.56;5073685;28;20203;-76
2023/05/13 00:54:52;;;;;;;9.23;5.27;;;;;;;-145.69;100.00;52509.75;5073456;28;20298;-76
2023/05/13 00:57:18;;;;;;;10.37;5.70;;;;;;;-145.69;100.00;52527.56;5073525;28;20248;-76
2023/05/13 00:59:46;;;;;;;9.03;5.57;;;;;;;-145.69;100.00;52503.81;5073325;28;20209;-76
2023/05/13 01:02:20;;;;;;;7.03;4.90;;;;;;;-145.69;100.00;52503.81;5073308;28;20225;-76
2023/05/13 01:04:58;;;;;;;8.00;5.20;;;;;;;-145.69;100.00;52525.59;5056315;28;20697;-77
2023/05/13 01:07:43;;;;;;;7.27;4.70;;;;;;;-145.69;100.00;52529.53;5069930;28;20286;-76
2023/05/13 01:10:15;;;;;;;7.17;5.50;;;;;;;-145.69;100.00;52505.78;5057487;28;20197;-76
2023/05/13 01:12:44;;;;;;;8.90;5.40;;;;;;;-145.69;100.00;52485.97;5066886;28;20561;-76
2023/05/13 01:15:15;;;;;;;10.00;5.37;;;;;;;-145.69;100.00;52535.47;5059297;28;20203;-77
2023/05/13 01:17:47;;;;;;;8.40;5.17;;;;;;;-145.69;100.00;52537.47;5053303;28;20199;-76
2023/05/13 01:20:14;;;;;;;12.57;6.60;;;;;;;-145.69;100.00;52515.69;5053220;28;20199;-76
2023/05/13 01:22:42;;;;;;;8.53;5.60;;;;;;;-145.69;100.00;52519.63;5052641;28;20195;-76
2023/05/13 01:25:08;;;;;;;7.70;4.80;;;;;;;-145.69;100.00;52511.72;5053162;28;20271;-76
2023/05/13 01:27:35;;;;;;;9.43;5.63;;;;;;;-145.69;100.00;52523.59;5053184;28;20200;-76
2023/05/13 01:30:02;;;;;;;9.33;5.70;;;;;;;-145.69;100.00;52507.75;5052920;28;20668;-77
2023/05/13 01:32:29;;;;;;;14.57;6.47;;;;;;;-145.69;100.00;52527.56;5052946;28;20294;-76
2023/05/13 01:34:56;;;;;;;8.13;5.13;;;;;;;-145.69;100.00;52547.38;5053034;28;20281;-76
2023/05/13 01:37:23;;;;;;;7.70;5.53;;;;;;;-145.69;100.00;52517.66;5053902;28;20301;-76
2023/05/13 01:39:51;;;;;;;9.23;5.87;;;;;;;-145.69;100.00;52517.66;5052763;28;20673;-76
2023/05/13 01:42:18;;;;;;;10.23;5.70;;;;;;;-145.69;100.00;52543.41;5052753;28;20716;-76
2023/05/13 01:44:44;;;;;;;10.90;6.13;;;;;;;-145.69;100.00;52513.69;5050686;28;20195;-75
2023/05/13 01:47:11;;;;;;;7.27;5.10;;;;;;;-145.69;100.00;52521.63;5052557;28;20284;-76
2023/05/13 01:49:37;;;;;;;7.20;5.20;;;;;;;-145.69;100.00;52525.59;5052593;28;20297;-76
2023/05/13 01:52:04;;;;;;;7.90;4.80;;;;;;;-145.69;100.00;52521.63;5052693;28;20202;-75
2023/05/13 01:54:31;;;;;;;7.93;5.73;;;;;;;-145.69;100.00;52523.59;5052867;28;20543;-75
2023/05/13 01:56:58;;;;;;;7.43;4.80;;;;;;;-145.69;100.00;52535.47;5052749;28;20245;-76
2023/05/13 01:59:25;;;;;;;8.43;5.53;;;;;;;-145.69;100.00;52515.69;5057271;28;20191;-76
2023/05/13 02:01:51;;;;;;;9.90;5.93;;;;;;;-145.69;100.00;52523.59;5072307;28;20669;-76
2023/05/13 02:04:18;;;;;;;11.47;7.00;;;;;;;-145.69;100.00;52525.59;5072587;28;20202;-76
2023/05/13 02:06:44;;;;;;;13.43;6.93;;;;;;;-145.69;100.00;52511.72;5072332;28;20226;-76
2023/05/13 02:09:11;;;;;;;12.23;7.67;;;;;;;-145.69;100.00;52511.72;5071154;28;20199;-76
2023/05/13 02:11:37;;;;;;;12.57;6.27;;;;;;;-145.69;100.00;52549.34;5032702;28;20212;-76
2023/05/13 02:14:05;;;;;;;11.23;7.13;;;;;;;-145.69;100.00;52517.66;5038695;28;20202;-76
2023/05/13 02:16:32;;;;;;;11.23;6.40;;;;;;;-145.69;100.00;52497.84;5056540;28;20191;-76
2023/05/13 02:18:58;;;;;;;8.90;5.67;;;;;;;-145.69;100.00;52525.59;5056362;28;20290;-76
2023/05/13 02:21:24;;;;;;;7.73;5.17;;;;;;;-145.69;100.00;52519.63;5056728;28;20207;-77
2023/05/13 02:23:51;;;;;;;9.30;6.00;;;;;;;-145.69;100.00;52519.63;5056490;28;20199;-77
2023/05/13 02:26:17;;;;;;;9.90;6.03;;;;;;;-145.69;100.00;52487.97;5056427;28;20257;-76
2023/05/13 02:28:44;;;;;;;9.23;5.87;;;;;;;-145.69;100.00;52511.72;5056456;28;20253;-76
2023/05/13 02:31:12;;;;;;;8.87;6.27;;;;;;;-145.69;100.00;52511.72;5055866;28;20188;-76
2023/05/13 02:33:38;;;;;;;11.27;5.60;;;;;;;-145.69;100.00;52513.69;5056221;28;20268;-76
2023/05/13 02:36:05;;;;;;;8.60;5.40;;;;;;;-145.69;100.00;52507.75;5056423;28;20199;-76
2023/05/13 02:38:31;;;;;;;7.47;5.33;;;;;;;-145.69;100.00;52523.59;5056281;28;20261;-76
2023/05/13 02:40:58;;;;;;;11.90;5.60;;;;;;;-145.69;100.00;52555.28;5056250;28;20199;-77
2023/05/13 02:43:26;;;;;;;8.47;5.73;;;;;;;-145.69;100.00;52549.34;5056055;28;20650;-76
2023/05/13 02:45:53;;;;;;;8.43;5.47;;;;;;;-145.69;100.00;52513.69;5069864;28;20226;-76
2023/05/13 02:48:20;;;;;;;13.63;6.30;;;;;;;-145.69;100.00;52513.69;5055816;28;20728;-76
2023/05/13 02:50:47;;;;;;;10.17;6.20;;;;;;;-145.69;100.00;52551.31;5055832;28;20203;-78
2023/05/13 02:53:13;;;;;;;9.03;6.20;;;;;;;-145.69;100.00;52525.59;5066586;28;20194;-78
2023/05/13 02:55:40;;;;;;;11.43;6.20;;;;;;;-145.69;100.00;52509.75;5075893;28;20198;-76
2023/05/13 02:58:08;;;;;;;8.97;6.23;;;;;;;-145.69;100.00;52555.28;5075779;28;20203;-76
2023/05/13 03:00:35;;;;;;;11.90;6.17;;;;;;;-145.69;100.00;52571.13;5075814;28;20199;-76
2023/05/13 03:03:01;;;;;;;9.73;6.23;;;;;;;-145.69;100.00;52545.38;5075876;28;20561;-76
2023/05/13 03:05:29;;;;;;;9.97;6.70;;;;;;;-145.69;100.00;52553.31;5075874;28;20226;-76
2023/05/13 03:07:56;;;;;;;12.47;6.33;;;;;;;-145.69;100.00;52509.75;5075759;28;20195;-76
2023/05/13 03:10:23;;;;;;;10.30;6.93;;;;;;;-145.69;100.00;52531.53;5075682;28;20213;-76
2023/05/13 03:12:50;;;;;;;11.17;6.70;;;;;;;-145.69;100.00;52579.06;5063460;28;20196;-77
2023/05/13 03:15:16;;;;;;;8.60;6.17;;;;;;;-145.69;100.00;52531.53;5055358;28;20196;-76
2023/05/13 03:17:43;;;;;;;11.30;6.43;;;;;;;-145.69;100.00;52559.25;5071153;28;20656;-77
2023/05/13 03:20:10;;;;;;;8.07;5.73;;;;;;;-145.69;100.00;52561.22;5055436;28;20199;-77
2023/05/13 03:22:38;;;;;;;6.93;5.23;;;;;;;-145.69;100.00;52519.63;5060329;28;20210;-77
2023/05/13 03:25:05;;;;;;;14.63;6.53;;;;;;;-145.69;100.00;52535.47;5075258;28;20211;-77
2023/05/13 03:27:32;;;;;;;7.77;5.50;;;;;;;-145.69;100.00;52519.63;5074509;28;20227;-77
2023/05/13 03:29:58;;;;;;;10.50;6.07;;;;;;;-145.69;100.00;52539.44;5075172;28;20256;-77
2023/05/13 03:32:29;;;;;;;8.50;6.07;;;;;;;-145.69;100.00;52531.53;5075356;28;20203;-76
2023/05/13 03:34:56;;;;;;;9.63;5.77;;;;;;;-145.69;100.00;52535.47;5075312;28;20207;-76
2023/05/13 03:37:22;;;;;;;11.77;6.37;;;;;;;-145.69;100.00;52535.47;5075214;28;20202;-76
2023/05/13 03:39:50;;;;;;;10.37;5.77;;;;;;;-145.69;100.00;52553.31;5075188;28;20238;-78
2023/05/13 03:42:16;;;;;;;9.80;6.70;;;;;;;-145.69;100.00;52561.22;5075095;28;20206;-77
2023/05/13 03:44:43;;;;;;;16.37;6.60;;;;;;;-145.69;100.00;52523.59;5066145;28;20245;-76
2023/05/13 03:47:09;;;;;;;11.37;6.73;;;;;;;-145.69;100.00;52519.63;5048847;28;20232;-76
2023/05/13 03:49:36;;;;;;;12.40;6.93;;;;;;;-145.69;100.00;52545.38;5066239;28;20194;-75
2023/05/13 03:52:03;;;;;;;13.97;7.80;;;;;;;-145.69;100.00;52543.41;5074880;28;20253;-75
2023/05/13 03:54:29;;;;;;;12.03;7.17;;;;;;;-145.69;100.00;52547.38;5074737;28;20645;-75
2023/05/13 03:56:57;;;;;;;11.73;7.80;;;;;;;-145.69;100.00;52551.31;5074655;28;20202;-75
2023/05/13 03:59:23;;;;;;;9.00;7.10;;;;;;;-145.69;100.00;52557.28;5074858;28;20539;-75
2023/05/13 04:01:50;;;;;;;11.90;6.80;;;;;;;-145.69;100.00;52547.38;5074783;28;20206;-75
2023/05/13 04:04:16;;;;;;;11.80;7.83;;;;;;;-145.69;100.00;52551.31;5074938;28;20253;-76
2023/05/13 04:06:42;;;;;;;10.67;7.20;;;;;;;-145.69;100.00;52586.97;5074556;28;20589;-76
2023/05/13 04:09:09;;;;;;;9.50;6.67;;;;;;;-145.69;100.00;52529.53;5074683;28;20195;-76
2023/05/13 04:11:35;;;;;;;8.90;6.53;;;;;;;-145.69;100.00;52515.69;5073275;28;20253;-76
2023/05/13 04:14:03;;;;;;;9.97;6.23;;;;;;;-145.69;100.00;52541.44;5054415;28;20582;-76
2023/05/13 04:16:30;;;;;;;8.77;6.37;;;;;;;-145.69;100.00;52547.38;5057865;28;20207;-75
2023/05/13 04:18:56;;;;;;;13.43;6.20;;;;;;;-145.69;100.00;52539.44;5074500;28;20245;-76
2023/05/13 04:21:23;;;;;;;9.27;5.90;;;;;;;-145.69;100.00;52537.47;5074354;28;20221;-75
2023/05/13 04:23:49;;;;;;;8.27;5.63;;;;;;;-145.69;100.00;52559.25;5074170;28;20723;-75
2023/05/13 04:26:15;;;;;;;7.63;5.57;;;;;;;-145.69;100.00;52503.81;5072357;28;20254;-76
2023/05/13 04:28:42;;;;;;;8.00;5.53;;;;;;;-145.69;100.00;52535.47;5074117;28;20661;-76
2023/05/13 04:31:10;;;;;;;7.10;5.33;;;;;;;-145.69;100.00;52549.34;5074074;28;20203;-76
2023/05/13 04:33:36;;;;;;;7.83;5.77;;;;;;;-145.69;100.00;52555.28;5074162;28;20608;-75
2023/05/13 04:36:03;;;;;;;8.07;5.63;;;;;;;-145.69;100.00;52571.13;5064723;28;20666;-76
2023/05/13 04:38:30;;;;;;;6.50;4.67;;;;;;;-145.69;100.00;52535.47;5052956;28;20257;-75
2023/05/13 04:40:57;;;;;;;6.33;4.90;;;;;;;-145.69;100.00;52529.53;5054009;28;20200;-75
2023/05/13 04:43:23;;;;;;;10.90;4.83;;;;;;;-145.69;100.00;52547.38;5054066;28;20195;-75
2023/05/13 04:45:50;;;;;;;6.60;4.10;;;;;;;-145.69;100.00;52535.47;5067898;28;20344;-76
2023/05/13 04:48:17;;;;;;;6.73;4.93;;;;;;;-145.69;100.00;52559.25;5054343;28;20227;-77
2023/05/13 04:50:47;;;;;;;9.73;5.10;;;;;;;-145.69;100.00;52567.16;5053743;28;20203;-76
2023/05/13 04:53:13;;;;;;;5.80;4.53;;;;;;;-145.69;100.00;52539.44;5053504;28;20214;-76
2023/05/13 04:55:40;;;;;;;6.20;4.43;;;;;;;-145.69;100.00;52519.63;5053696;28;20222;-76
2023/05/13 04:58:06;;;;;;;7.43;4.77;;;;;;;-145.69;100.00;52539.44;5053631;28;20684;-76
2023/05/13 05:00:33;;;;;;;6.93;4.37;;;;;;;-145.69;100.00;52531.53;5053655;28;20203;-76
2023/05/13 05:02:59;;;;;;;7.20;4.90;;;;;;;-145.69;100.00;52537.47;5053553;28;20227;-76
2023/05/13 05:05:27;;;;;;;6.57;4.50;;;;;;;-145.69;100.00;52517.66;5053343;28;20290;-76
2023/05/13 05:07:54;;;;;;;6.23;4.53;;;;;;;-145.69;100.00;52531.53;5053519;28;20223;-76
2023/05/13 05:10:20;;;;;;;6.53;4.60;;;;;;;-145.69;100.00;52559.25;5053561;28;20215;-76
2023/05/13 05:12:47;;;;;;;5.30;4.00;;;;;;;-145.69;100.00;52519.63;5053276;28;20206;-76
2023/05/13 05:15:15;;;;;;;5.97;4.37;;;;;;;-145.69;100.00;52537.47;5061583;28;20195;-76
2023/05/13 05:17:41;;;;;;;6.70;4.70;;;;;;;-145.69;100.00;52521.63;5058925;28;20282;-76
2023/05/13 05:20:09;;;;;;;6.80;4.70;;;;;;;-145.69;100.00;52523.59;5053347;28;20199;-75
2023/05/13 05:22:37;;;;;;;10.80;5.17;;;;;;;-145.69;100.00;52511.72;5053092;28;20206;-76
2023/05/13 05:25:04;;;;;;;7.07;5.20;;;;;;;-145.69;100.00;52539.44;5053271;28;20207;-75
2023/05/13 05:27:30;;;;;;;7.33;4.50;;;;;;;-145.69;100.00;52495.88;5053087;28;20223;-76
2023/05/13 05:29:56;;;;;;;6.60;4.83;;;;;;;-145.69;100.00;52523.59;5053097;28;20203;-75
2023/05/13 05:32:23;;;;;;;7.57;5.03;;;;;;;-145.69;100.00;52505.78;5053085;28;20601;-75
2023/05/13 05:34:50;;;;;;;7.87;4.60;;;;;;;-145.69;100.00;52523.59;5052865;28;20206;-76
2023/05/13 05:37:16;;;;;;;5.83;4.50;;;;;;;-145.69;100.00;52543.41;5064994;28;20191;-76
2023/05/13 05:39:44;;;;;;;6.73;4.90;;;;;;;-145.69;100.00;52559.25;5061065;28;20195;-75
2023/05/13 05:42:12;;;;;;;10.10;4.60;;;;;;;-145.69;100.00;52495.88;5069618;28;20191;-76
2023/05/13 05:44:38;;;;;;;6.97;4.60;;;;;;;-145.69;100.00;52507.75;5069053;28;20555;-76
2023/05/13 05:47:05;;;;;;;6.97;4.80;;;;;;;-145.69;100.00;52511.72;5052594;28;20231;-76
2023/05/13 05:49:31;;;;;;;5.73;4.40;;;;;;;-145.69;100.00;52535.47;5052402;28;20200;-76
2023/05/13 05:51:57;;;;;;;8.07;4.70;;;;;;;-145.69;100.00;52523.59;5049184;28;20207;-76
2023/05/13 05:54:24;;;;;;;6.93;4.93;;;;;;;-145.69;100.00;52523.59;5052811;28;20658;-76
2023/05/13 05:56:52;;;;;;;6.53;4.07;;;;;;;-145.69;100.00;52535.47;5052671;28;20203;-76
2023/05/13 05:59:18;;;;;;;6.70;4.50;;;;;;;-145.69;100.00;52503.81;5052782;28;20265;-77
2023/05/13 06:01:45;;;;;;;5.30;4.00;;;;;;;-145.69;100.00;52521.63;5052574;28;20563;-77
2023/05/13 06:04:11;;;;;;;8.53;4.57;;;;;;;-145.69;100.00;52537.47;5052972;28;20614;-76
2023/05/13 06:06:39;;;;;;;6.73;4.13;;;;;;;-145.69;100.00;52507.75;5059992;28;20223;-76
2023/05/13 06:09:05;;;;;;;6.03;4.10;;;;;;;-145.69;100.00;52533.50;5052666;28;20298;-76
2023/05/13 06:11:32;;;;;;;5.23;4.23;;;;;;;-145.69;100.00;52521.63;5053412;28;20195;-76
2023/05/13 06:13:59;;;;;;;7.00;4.33;;;;;;;-145.69;100.00;52515.69;5052897;28;20203;-76
2023/05/13 06:16:26;;;;;;;5.07;3.97;;;;;;;-145.69;100.00;52533.50;5071505;28;20558;-76
2023/05/13 06:18:52;;;;;;;8.30;5.40;;;;;;;-145.69;100.00;52515.69;5072836;28;20195;-75
2023/05/13 06:21:19;;;;;;;7.90;5.10;;;;;;;-145.69;100.00;52523.59;5060213;28;20540;-76
2023/05/13 06:23:45;;;;;;;7.80;4.80;;;;;;;-145.69;100.00;52525.59;5052637;28;20203;-76
2023/05/13 06:26:11;;;;;;;9.20;5.57;;;;;;;-145.69;100.00;52519.63;5052420;28;20200;-76
2023/05/13 06:28:38;;;;;;;9.13;5.07;;;;;;;-145.69;100.00;52521.63;5052405;28;20211;-76
2023/05/13 06:31:05;;;;;;;13.50;5.80;;;;;;;-145.69;100.00;52521.63;5052259;28;20200;-75
2023/05/13 06:33:32;;;;;;;8.50;5.50;;;;;;;-145.69;100.00;52499.84;5052509;28;20206;-75
2023/05/13 06:35:58;;;;;;;7.33;5.53;;;;;;;-145.69;100.00;52511.72;5053531;28;20195;-75
2023/05/13 06:38:25;;;;;;;8.87;6.07;;;;;;;-145.69;100.00;52529.53;5053362;28;20724;-77
2023/05/13 06:40:51;;;;;;;8.23;5.40;;;;;;;-145.69;100.00;52531.53;5052248;28;20200;-76
2023/05/13 06:43:18;;;;;;;9.67;5.80;;;;;;;-145.69;100.00;52557.28;5052291;28;20203;-76
2023/05/13 06:45:44;;;;;;;8.70;5.80;;;;;;;-145.69;100.00;52495.88;5051795;28;20655;-76
2023/05/13 06:48:13;;;;;;;8.30;5.60;;;;;;;-145.69;100.00;52513.69;5052010;28;20239;-78
2023/05/13 06:50:39;;;;;;;7.27;5.10;;;;;;;-145.69;100.00;52571.13;5052530;28;20597;-77
2023/05/13 06:53:06;;;;;;;10.17;5.50;;;;;;;-145.69;100.00;52501.81;5061892;28;20560;-76
2023/05/13 06:55:34;;;;;;;6.17;4.77;;;;;;;-145.69;100.00;52555.28;5072211;28;20260;-77
2023/05/13 06:58:01;;;;;;;7.07;5.03;;;;;;;-145.69;100.00;52535.47;5072145;28;20203;-77
2023/05/13 07:00:27;;;;;;;6.67;4.97;;;;;;;-145.69;100.00;52507.75;5072198;28;20622;-77
2023/05/13 07:02:54;;;;;;;6.20;4.63;;;;;;;-145.69;100.00;52519.63;5075540;28;20646;-77
2023/05/13 07:05:21;;;;;;;6.47;4.33;;;;;;;-145.69;100.00;52511.72;5075897;28;20203;-78
2023/05/13 07:07:52;;;;;;;7.47;4.93;;;;;;;-145.69;100.00;52525.59;5057171;28;20227;-78
2023/05/13 07:10:18;;;;;;;7.13;5.00;;;;;;;-145.69;100.00;52503.81;5055811;28;20199;-77
2023/05/13 07:12:45;;;;;;;6.93;4.83;;;;;;;-145.69;100.00;52533.50;5055439;28;20203;-77
2023/05/13 07:15:11;;;;;;;6.73;4.43;;;;;;;-145.69;100.00;52563.22;5065297;28;20206;-77
2023/05/13 07:17:38;;;;;;;8.63;4.73;;;;;;;-145.69;100.00;52519.63;5075762;28;20210;-77
2023/05/13 07:20:05;;;;;;;10.13;4.83;;;;;;;-145.69;100.00;52535.47;5074977;28;20210;-78
2023/05/13 07:22:33;;;;;;;6.90;4.87;;;;;;;-145.69;100.00;52513.69;5055533;28;20196;-76
2023/05/13 07:24:59;;;;;;;7.50;4.20;;;;;;;-145.69;100.00;52543.41;5055346;28;20257;-76
2023/05/13 07:27:25;;;;;;;4.87;3.97;;;;;;;-145.69;100.00;52539.44;5055229;28;20234;-76
2023/05/13 07:29:52;;;;;;;7.60;4.97;;;;;;;-145.69;100.00;52515.69;5055476;28;20203;-78
2023/05/13 07:32:18;;;;;;;5.73;4.13;;;;;;;-145.69;100.00;52507.75;5055292;28;20651;-77
2023/05/13 07:34:45;;;;;;;7.43;4.30;;;;;;;-145.69;100.00;52501.81;5055336;28;20206;-76
2023/05/13 07:37:11;;;;;;;7.70;4.77;;;;;;;-145.69;100.00;52539.44;5065381;28;20252;-76
2023/05/13 07:39:39;;;;;;;6.87;4.50;;;;;;;-145.69;100.00;52563.22;5075206;28;20199;-76
2023/05/13 07:42:06;;;;;;;6.07;4.00;;;;;;;-145.69;100.00;52519.63;5075193;28;20281;-77
2023/05/13 07:44:32;;;;;;;8.20;4.43;;;;;;;-145.69;100.00;52511.72;5074814;28;20253;-78
2023/05/13 07:46:59;;;;;;;5.90;4.00;;;;;;;-145.69;100.00;52511.72;5074767;28;20234;-77
2023/05/13 07:49:25;;;;;;;7.10;3.67;;;;;;;-145.69;100.00;52523.59;5074998;28;20531;-77
2023/05/13 07:51:52;;;;;;;6.32;3.47;;;;;;;-145.69;100.00;52527.56;5061182;28;20191;-76
2023/05/13 07:54:18;;;;;;;6.07;3.40;;;;;;;-145.69;100.00;52491.91;5069928;28;20198;-77
2023/05/13 07:56:46;;;;;;;5.53;3.80;;;;;;;-145.69;100.00;52480.03;5074972;28;20203;-77
2023/05/13 07:59:13;;;;;;;6.78;3.75;;;;;;;-145.69;100.00;52527.56;5053415;28;20204;-76
2023/05/13 08:01:39;;;;;;;4.93;3.57;;;;;;;-145.69;100.00;52507.75;5034655;28;20666;-75
2023/05/13 08:04:06;;;;;;;7.30;3.65;;;;;;;-145.69;100.00;52515.69;5054760;28;20196;-76
2023/05/13 08:06:32;;;;;;;5.30;3.30;;;;;;;-145.69;100.00;52519.63;5058450;28;20721;-75
2023/05/13 08:09:00;;;;;;;4.95;3.80;;;;;;;-145.69;100.00;52553.31;5061660;28;20223;-75
2023/05/13 08:11:27;;;;;;;7.22;4.18;;;;;;;-145.69;100.00;52533.50;5054547;28;20199;-76
2023/05/13 08:13:55;;;;;;;5.95;3.38;;;;;;;-145.69;100.00;52468.16;5054385;28;20208;-77
2023/05/13 08:16:21;;;;;;;5.65;3.15;;;;;;;-145.69;100.00;52480.03;5069630;28;20199;-76
2023/05/13 08:18:47;;;;;;;4.60;3.47;;;;;;;-145.69;100.00;52523.59;5074294;28;20210;-76
2023/05/13 08:21:14;;;;;;;5.77;3.70;;;;;;;-145.69;100.00;52503.81;5074250;28;20199;-77
2023/05/13 08:23:40;;;;;;;5.95;3.35;;;;;;;-145.69;100.00;52511.72;5074152;28;20309;-76
2023/05/13 08:26:07;;;;;;;5.88;3.70;;;;;;;-145.69;100.00;52543.41;5074454;28;20203;-77
2023/05/13 08:28:33;;;;;;;5.53;3.47;;;;;;;-145.69;100.00;52517.66;5074299;28;20230;-77
2023/05/13 08:31:02;;;;;;;5.10;3.90;;;;;;;-145.69;100.00;52521.63;5074234;28;20198;-78
2023/05/13 08:33:29;;;;;;;5.60;3.80;;;;;;;-145.69;100.00;52515.69;5074059;28;20195;-76
2023/05/13 08:35:55;;;;;;;6.60;4.10;;;;;;;-145.69;100.00;52523.59;5056504;28;20291;-78
2023/05/13 08:38:22;;;;;;;10.23;4.10;;;;;;;-145.69;100.00;52517.66;5054114;28;20282;-78
2023/05/13 08:40:49;;;;;;;6.23;3.80;;;;;;;-145.69;100.00;52527.56;5052714;28;20540;-78
2023/05/13 08:43:16;;;;;;;8.67;3.90;;;;;;;-145.69;100.00;52489.94;5053552;28;20207;-78
2023/05/13 08:45:45;;;;;;;6.93;3.90;;;;;;;-145.69;100.00;52523.59;5063785;28;20203;-78
2023/05/13 08:48:15;;;;;;;9.02;3.83;;;;;;;-145.69;100.00;52525.59;5073420;28;20249;-78
2023/05/13 08:50:43;;;;;;;7.33;3.90;;;;;;;-145.69;100.00;52495.88;5073169;28;20203;-79
2023/05/13 08:53:11;;;;;;;9.43;4.63;;;;;;;-145.69;100.00;52505.78;5073405;28;20199;-78
2023/05/13 08:55:39;;;;;;;11.70;4.40;;;;;;;-145.69;100.00;52484.00;5072575;28;20194;-78
2023/05/13 08:58:05;;;;;;;9.80;5.23;;;;;;;-145.69;100.00;52535.47;5073619;28;20264;-77
2023/05/13 09:00:33;;;;;;;6.07;4.40;;;;;;;-145.69;100.00;52531.53;5073622;28;20213;-77
2023/05/13 09:02:59;;;;;;;5.83;4.03;;;;;;;-145.69;100.00;52503.81;5073409;28;20612;-78
2023/05/13 09:05:30;;;;;;;6.40;4.53;;;;;;;-145.69;100.00;52511.72;5073379;28;20573;-77
2023/05/13 09:07:57;;;;;;;7.63;4.27;;;;;;;-145.69;100.00;52472.13;5070019;28;20311;-78
2023/05/13 09:10:23;;;;;;;4.70;3.60;;;;;;;-145.69;100.00;52509.75;5053423;28;20207;-78
2023/05/13 09:12:51;;;;;;;6.43;4.07;;;;;;;-145.69;100.00;52517.66;5053276;28;20206;-78
2023/05/13 09:15:20;;;;;;;8.23;4.40;;;;;;;-145.69;100.00;52503.81;5059596;28;20194;-78
2023/05/13 09:17:50;;;;;;;6.40;3.57;;;;;;;-145.69;100.00;52531.53;5073134;28;20198;-78
2023/05/13 09:20:18;;;;;;;5.50;3.53;;;;;;;-145.69;100.00;52519.63;5057231;28;20196;-78
2023/05/13 09:22:47;;;;;;;12.30;4.50;;;;;;;-145.69;100.00;52539.44;5053208;28;20195;-78
2023/05/13 09:25:14;;;;;;;9.90;3.63;;;;;;;-145.69;100.00;52527.56;5052590;28;20195;-78
2023/05/13 09:27:43;;;;;;;6.23;4.00;;;;;;;-145.69;100.00;52507.75;5052750;28;20310;-78
2023/05/13 09:30:10;;;;;;;5.40;3.55;;;;;;;-145.69;100.00;52511.72;5052842;28;20199;-77
2023/05/13 09:33:05;;;;;;;7.43;4.00;;;;;;;-145.69;100.00;52476.06;5053110;28;20293;-77
2023/05/13 09:35:35;;;;;;;7.28;3.83;;;;;;;-145.69;100.00;52505.78;5052270;28;20455;-78
2023/05/13 09:38:14;;;;;;;7.85;3.90;;;;;;;-145.69;100.00;52525.59;5058635;28;20654;-77
2023/05/13 09:40:41;;;;;;;6.40;4.10;;;;;;;-145.69;100.00;52519.63;5072811;28;20226;-77
2023/05/13 09:43:07;;;;;;;5.30;3.58;;;;;;;-145.69;100.00;52497.84;5072320;28;20653;-77
2023/05/13 09:45:37;;;;;;;7.18;3.95;;;;;;;-145.69;100.00;52505.78;5063895;28;20589;-77
2023/05/13 09:48:05;;;;;;;5.50;3.67;;;;;;;-145.69;100.00;52515.69;5052089;28;20231;-78
2023/05/13 09:50:31;;;;;;;6.10;4.10;;;;;;;-145.69;100.00;52497.84;5052359;28;20253;-78
2023/05/13 09:53:11;;;;;;;8.50;4.07;;;;;;;-145.69;100.00;52529.53;5052541;28;20206;-78
2023/05/13 09:55:45;;;;;;;8.50;4.27;;;;;;;-145.69;100.00;52501.81;5052949;28;20237;-78
2023/05/13 09:58:13;;;;;;;5.50;4.03;;;;;;;-145.69;100.00;52515.69;5033305;28;20204;-80
2023/05/13 10:00:41;;;;;;;8.73;3.70;;;;;;;-145.69;100.00;52511.72;5050884;28;20689;-81
2023/05/13 10:03:11;;;;;;;5.57;3.55;;;;;;;-145.69;100.00;52489.94;5052684;28;20295;-81
2023/05/13 10:05:39;;;;;;;5.32;4.05;;;;;;;-145.69;100.00;52482.00;5052618;28;20245;-80
2023/05/13 10:08:08;;;;;;;5.77;3.93;;;;;;;-145.69;100.00;52515.69;5056969;28;20620;-79
2023/05/13 10:10:37;;;;;;;11.37;4.60;;;;;;;-145.69;100.00;52495.88;5072818;28;20629;-79
2023/05/13 10:13:10;;;;;;;7.68;4.20;;;;;;;-145.69;100.00;52517.66;5072806;28;20206;-81
2023/05/13 10:15:47;;;;;;;13.07;4.73;;;;;;;-145.69;100.00;52507.75;5063770;28;20625;-85
2023/05/13 10:18:19;;;;;;;8.27;5.30;;;;;;;-145.69;100.00;52515.69;5052903;28;20195;-82
2023/05/13 10:20:51;;;;;;;6.40;4.13;;;;;;;-145.69;100.00;52523.59;5052448;28;20207;-82
2023/05/13 10:23:21;;;;;;;9.32;3.85;;;;;;;-145.69;100.00;52499.84;5052645;28;20218;-79
2023/05/13 10:25:48;;;;;;;8.90;4.67;;;;;;;-145.69;100.00;52468.16;5052910;28;20200;-79
2023/05/13 10:28:16;;;;;;;8.88;4.30;;;;;;;-145.69;100.00;52531.53;5052472;28;20302;-80
2023/05/13 10:30:44;;;;;;;10.73;4.23;;;;;;;-145.69;100.00;52517.66;5052457;28;20207;-85
2023/05/13 10:33:10;;;;;;;5.95;4.30;;;;;;;-145.69;100.00;52480.03;5060895;28;20202;-80
2023/05/13 10:35:43;;;;;;;7.50;4.28;;;;;;;-145.69;100.00;52501.81;5072410;28;20670;-78
2023/05/13 10:38:13;;;;;;;8.77;4.67;;;;;;;-145.69;100.00;52501.81;5076033;28;20195;-81
2023/05/13 10:41:02;;;;;;;8.47;4.80;;;;;;;-145.69;100.00;52511.72;5076406;28;20260;-80
2023/05/13 10:43:31;;;;;;;7.43;5.03;;;;;;;-145.69;100.00;52547.38;5075340;28;20203;-82
2023/05/13 10:46:03;;;;;;;7.53;4.83;;;;;;;-145.69;100.00;52511.72;5055363;28;20263;-80
2023/05/13 10:48:39;;;;;;;7.35;5.10;;;;;;;-145.69;100.00;52507.75;5056102;28;20628;-82
2023/05/13 10:51:06;;;;;;;12.20;5.80;;;;;;;-145.69;100.00;52525.59;5055939;28;20207;-80
2023/05/13 10:53:37;;;;;;;11.60;6.13;;;;;;;-145.69;100.00;52531.53;5054790;28;20443;-81
2023/05/13 10:56:06;;;;;;;8.50;5.20;;;;;;;-145.69;100.00;52489.94;5055939;28;20203;-82
2023/05/13 10:58:37;;;;;;;9.90;5.33;;;;;;;-145.69;100.00;52553.31;5062247;28;20294;-81
2023/05/13 11:01:14;;;;;;;9.00;5.97;;;;;;;-145.69;100.00;52529.53;5076021;28;20199;-81
2023/05/13 11:03:42;;;;;;;11.90;5.70;;;;;;;-145.69;100.00;52505.78;5067256;28;20195;-80
2023/05/13 11:06:17;;;;;;;9.53;5.20;;;;;;;-145.69;100.00;52539.44;5055224;28;20195;-80
2023/05/13 11:08:46;;;;;;;12.47;5.13;;;;;;;-145.69;100.00;52511.72;5055772;28;20262;-82